Time;durP1;ratioP1;P1;durP2;ratioP2;P2;SDS_P1;SDS_P2;PMS_P1;PMS_P2;Temp;Humidity;BMP_temperature;BMP_pressure;BME280_temperature;BME280_humidity;BME280_pressure;Samples;Min_cycle;Max_cycle;Signal;HPM_P1;HPM_P2
2022/05/21 00:01:49;;;;;;;8.43;7.93;;;;;;;;;;5033177;28;20641;-64
2022/05/21 00:04:14;;;;;;;8.40;7.90;;;;;;;;;;5030158;28;20124;-64
2022/05/21 00:06:40;;;;;;;9.90;9.30;;;;;;;;;;5032307;28;20578;-64
2022/05/21 00:09:06;;;;;;;8.70;8.15;;;;;;;;;;5028803;28;20532;-64
2022/05/21 00:11:31;;;;;;;8.75;8.20;;;;;;;;;;5030531;28;20029;-64
2022/05/21 00:13:57;;;;;;;9.10;8.52;;;;;;;;;;5031193;28;20025;-64
2022/05/21 00:16:23;;;;;;;10.23;9.63;;;;;;;;;;5030964;28;20466;-64
2022/05/21 00:18:48;;;;;;;9.80;9.20;;;;;;;;;;5030371;28;20044;-64
2022/05/21 00:21:14;;;;;;;9.07;8.48;;;;;;;;;;5036445;28;20036;-64
2022/05/21 00:23:41;;;;;;;9.90;9.30;;;;;;;;;;5032965;28;20034;-65
2022/05/21 00:26:14;;;;;;;10.25;9.55;;;;;;;;;;5035904;28;20087;-64
2022/05/21 00:28:41;;;;;;;11.35;10.65;;;;;;;;;;5036572;28;20033;-64
2022/05/21 00:31:09;;;;;;;11.90;11.20;;;;;;;;;;5035317;28;20032;-64
2022/05/21 00:33:35;;;;;;;9.85;9.25;;;;;;;;;;5034698;28;20022;-64
2022/05/21 00:36:01;;;;;;;9.43;8.82;;;;;;;;;;5034583;28;20033;-65
2022/05/21 00:38:26;;;;;;;7.35;6.85;;;;;;;;;;5036643;28;20037;-65
2022/05/21 00:40:53;;;;;;;6.80;6.30;;;;;;;;;;5031225;28;20065;-65
2022/05/21 00:43:40;;;;;;;7.28;6.78;;;;;;;;;;5031649;28;20116;-64
2022/05/21 00:46:08;;;;;;;7.57;6.97;;;;;;;;;;5033499;28;20037;-65
2022/05/21 00:48:36;;;;;;;7.82;7.32;;;;;;;;;;5033228;28;20029;-65
2022/05/21 00:51:04;;;;;;;8.00;7.50;;;;;;;;;;5032987;28;20052;-64
2022/05/21 00:53:30;;;;;;;7.07;6.57;;;;;;;;;;5038136;28;20029;-65
2022/05/21 00:55:56;;;;;;;6.90;6.40;;;;;;;;;;5035501;28;20463;-65
2022/05/21 01:01:12;;;;;;;6.82;6.32;;;;;;;;;;5037358;28;20013;-65
2022/05/21 01:03:38;;;;;;;6.70;6.10;;;;;;;;;;5033204;28;20662;-65
2022/05/21 01:06:03;;;;;;;6.88;6.38;;;;;;;;;;5034018;28;20021;-64
2022/05/21 01:08:29;;;;;;;6.25;5.85;;;;;;;;;;5037505;28;20029;-64
2022/05/21 01:10:58;;;;;;;7.97;7.47;;;;;;;;;;5032733;28;20684;-64
2022/05/21 01:13:27;;;;;;;6.20;5.70;;;;;;;;;;5036483;28;20033;-65
2022/05/21 01:15:54;;;;;;;6.75;6.28;;;;;;;;;;5033214;28;20510;-65
2022/05/21 01:18:21;;;;;;;6.45;6.05;;;;;;;;;;5034157;28;20029;-65
2022/05/21 01:20:49;;;;;;;6.40;6.00;;;;;;;;;;5034396;28;20068;-65
2022/05/21 01:23:16;;;;;;;7.40;6.90;;;;;;;;;;5034541;28;20061;-65
2022/05/21 01:25:44;;;;;;;9.75;9.05;;;;;;;;;;5035977;28;20051;-65
2022/05/21 01:28:12;;;;;;;9.52;8.93;;;;;;;;;;5035673;28;20045;-65
2022/05/21 01:30:44;;;;;;;9.27;8.68;;;;;;;;;;5033782;28;20045;-65
2022/05/21 01:33:12;;;;;;;11.57;10.88;;;;;;;;;;5033595;28;20678;-65
2022/05/21 01:35:39;;;;;;;11.77;11.07;;;;;;;;;;5032077;28;20041;-65
2022/05/21 01:38:06;;;;;;;12.20;11.50;;;;;;;;;;5032418;28;20045;-65
2022/05/21 01:40:31;;;;;;;11.38;10.68;;;;;;;;;;5033933;28;20631;-65
2022/05/21 01:45:42;;;;;;;11.23;10.52;;;;;;;;;;5031851;28;20485;-65
2022/05/21 01:48:07;;;;;;;8.70;8.15;;;;;;;;;;5033823;28;20029;-64
2022/05/21 01:50:35;;;;;;;8.63;8.13;;;;;;;;;;5034803;28;20048;-64
2022/05/21 01:53:00;;;;;;;10.70;10.07;;;;;;;;;;5032732;28;20094;-64
2022/05/21 01:55:26;;;;;;;11.35;10.65;;;;;;;;;;5032275;28;20140;-64
2022/05/21 01:57:51;;;;;;;11.43;10.73;;;;;;;;;;5035340;28;20504;-64
2022/05/21 02:00:18;;;;;;;12.70;11.98;;;;;;;;;;5035423;28;20025;-64
2022/05/21 02:02:43;;;;;;;16.17;15.27;;;;;;;;;;5033299;28;20041;-64
2022/05/21 02:05:09;;;;;;;14.88;14.05;;;;;;;;;;5032143;28;20025;-64
2022/05/21 02:07:35;;;;;;;15.23;14.32;;;;;;;;;;5035644;28;20482;-65
2022/05/21 02:10:01;;;;;;;15.18;14.27;;;;;;;;;;5029595;28;20033;-64
2022/05/21 02:12:27;;;;;;;16.42;15.52;;;;;;;;;;5029440;28;20525;-65
2022/05/21 02:14:55;;;;;;;16.38;15.48;;;;;;;;;;5034282;28;20029;-64
2022/05/21 02:17:21;;;;;;;16.05;15.13;;;;;;;;;;5031266;28;20186;-65
2022/05/21 02:19:47;;;;;;;15.40;14.50;;;;;;;;;;5032382;28;20044;-65
2022/05/21 02:22:13;;;;;;;16.45;15.55;;;;;;;;;;5034502;28;20037;-65
2022/05/21 02:24:38;;;;;;;14.43;13.57;;;;;;;;;;5031586;28;20740;-64
2022/05/21 02:27:08;;;;;;;14.88;14.02;;;;;;;;;;5034455;28;20036;-64
2022/05/21 02:29:33;;;;;;;14.50;13.70;;;;;;;;;;5034811;28;20434;-64
2022/05/21 02:31:59;;;;;;;15.57;14.68;;;;;;;;;;5033102;28;20091;-64
2022/05/21 02:34:24;;;;;;;14.25;13.45;;;;;;;;;;5032254;28;20049;-64
2022/05/21 02:39:34;;;;;;;13.68;12.85;;;;;;;;;;5034057;28;20112;-64
2022/05/21 02:42:00;;;;;;;13.88;13.07;;;;;;;;;;5030373;28;20155;-64
2022/05/21 02:44:27;;;;;;;11.43;10.73;;;;;;;;;;5033442;28;20569;-65
2022/05/21 02:46:53;;;;;;;11.63;10.93;;;;;;;;;;5031436;28;20146;-65
2022/05/21 02:49:19;;;;;;;14.00;13.20;;;;;;;;;;5030018;28;20154;-64
2022/05/21 02:51:44;;;;;;;12.88;12.07;;;;;;;;;;5030590;28;20581;-64
2022/05/21 02:54:14;;;;;;;12.55;11.85;;;;;;;;;;5032895;28;20025;-64
2022/05/21 02:56:47;;;;;;;11.57;10.88;;;;;;;;;;5032299;28;20026;-64
2022/05/21 02:59:14;;;;;;;12.60;11.85;;;;;;;;;;5033888;28;20025;-64
2022/05/21 03:01:39;;;;;;;13.18;12.38;;;;;;;;;;5033005;28;20068;-64
2022/05/21 03:04:04;;;;;;;11.85;11.15;;;;;;;;;;5033443;28;20072;-64
2022/05/21 03:06:30;;;;;;;11.95;11.25;;;;;;;;;;5030806;28;20037;-64
2022/05/21 03:11:39;;;;;;;12.23;11.43;;;;;;;;;;5032374;28;20029;-64
2022/05/21 03:14:04;;;;;;;11.35;10.65;;;;;;;;;;5029737;28;20033;-63
2022/05/21 03:16:30;;;;;;;12.15;11.45;;;;;;;;;;5032330;28;20037;-64
2022/05/21 03:18:55;;;;;;;12.20;11.45;;;;;;;;;;5030856;28;20065;-64
2022/05/21 03:21:20;;;;;;;12.00;11.30;;;;;;;;;;5031193;28;20461;-64
2022/05/21 03:23:46;;;;;;;10.50;9.80;;;;;;;;;;5032795;28;20406;-64
2022/05/21 03:26:11;;;;;;;10.40;9.80;;;;;;;;;;5030809;28;20565;-64
2022/05/21 03:28:37;;;;;;;10.73;10.02;;;;;;;;;;5029738;28;20530;-64
2022/05/21 03:31:02;;;;;;;10.80;10.10;;;;;;;;;;5033201;28;20522;-64
2022/05/21 03:33:28;;;;;;;11.10;10.40;;;;;;;;;;5034431;28;20117;-64
2022/05/21 03:35:53;;;;;;;11.00;10.30;;;;;;;;;;5031866;28;20379;-64
2022/05/21 03:38:19;;;;;;;11.98;11.27;;;;;;;;;;5027792;28;20037;-64
2022/05/21 03:40:44;;;;;;;9.90;9.30;;;;;;;;;;5031644;28;20041;-64
2022/05/21 03:43:10;;;;;;;10.25;9.55;;;;;;;;;;5032169;28;20037;-63
2022/05/21 03:45:36;;;;;;;10.82;9.73;;;;;;;;;;5031513;28;20606;-63
2022/05/21 03:48:02;;;;;;;9.70;9.10;;;;;;;;;;5030755;28;20064;-64
2022/05/21 03:50:27;;;;;;;10.23;9.60;;;;;;;;;;5032670;28;20071;-64
2022/05/21 03:52:53;;;;;;;9.13;8.52;;;;;;;;;;5032810;28;20052;-63
2022/05/21 03:55:18;;;;;;;9.98;9.38;;;;;;;;;;5033638;28;20040;-63
2022/05/21 03:57:44;;;;;;;11.05;10.38;;;;;;;;;;5032289;28;20041;-65
2022/05/21 04:00:13;;;;;;;10.13;9.43;;;;;;;;;;5034866;28;20029;-64
2022/05/21 04:02:39;;;;;;;9.30;8.70;;;;;;;;;;5034037;28;20107;-64
2022/05/21 04:05:06;;;;;;;10.00;9.40;;;;;;;;;;5033056;28;20037;-65
2022/05/21 04:07:32;;;;;;;9.68;9.07;;;;;;;;;;5038852;28;20045;-64
2022/05/21 04:09:57;;;;;;;9.52;8.93;;;;;;;;;;5035359;28;20508;-65
2022/05/21 04:12:22;;;;;;;9.80;9.20;;;;;;;;;;5033901;28;20040;-65
2022/05/21 04:14:47;;;;;;;9.32;8.68;;;;;;;;;;5039263;28;20058;-64
2022/05/21 04:17:13;;;;;;;9.35;8.75;;;;;;;;;;5032121;28;20090;-64
2022/05/21 04:19:40;;;;;;;8.95;8.35;;;;;;;;;;5035097;28;20041;-64
2022/05/21 04:22:06;;;;;;;9.73;9.02;;;;;;;;;;5033616;28;20029;-64
2022/05/21 04:24:32;;;;;;;9.48;8.88;;;;;;;;;;5034873;28;20592;-64
2022/05/21 04:26:57;;;;;;;9.18;8.57;;;;;;;;;;5035944;28;20066;-64
2022/05/21 04:29:23;;;;;;;7.85;7.35;;;;;;;;;;5032424;28;20367;-63
2022/05/21 04:31:48;;;;;;;8.60;8.00;;;;;;;;;;5031607;28;20063;-65
2022/05/21 04:34:14;;;;;;;8.63;8.02;;;;;;;;;;5034393;28;20062;-64
2022/05/21 04:36:39;;;;;;;9.15;8.55;;;;;;;;;;5035811;28;20028;-65
2022/05/21 04:39:05;;;;;;;7.38;6.88;;;;;;;;;;5033365;28;20565;-65
2022/05/21 04:41:31;;;;;;;7.78;7.28;;;;;;;;;;5033576;28;20371;-65
2022/05/21 04:43:56;;;;;;;6.47;5.97;;;;;;;;;;5032703;28;20049;-64
2022/05/21 04:46:24;;;;;;;6.90;6.40;;;;;;;;;;5033598;28;20053;-65
2022/05/21 04:48:50;;;;;;;7.05;6.55;;;;;;;;;;5020904;28;20037;-65
2022/05/21 04:51:16;;;;;;;6.22;5.82;;;;;;;;;;5034103;28;20479;-65
2022/05/21 04:53:41;;;;;;;7.55;7.05;;;;;;;;;;5034926;28;20615;-65
2022/05/21 04:56:07;;;;;;;7.57;6.97;;;;;;;;;;5031208;28;20033;-64
2022/05/21 04:58:33;;;;;;;7.70;7.18;;;;;;;;;;5034786;28;20409;-64
2022/05/21 05:00:59;;;;;;;7.38;6.88;;;;;;;;;;5028563;28;20119;-64
2022/05/21 05:03:25;;;;;;;6.88;6.38;;;;;;;;;;5032376;28;20503;-63
2022/05/21 05:05:51;;;;;;;6.53;6.03;;;;;;;;;;5030543;28;20036;-63
2022/05/21 05:08:19;;;;;;;6.60;6.10;;;;;;;;;;5034398;28;20676;-63
2022/05/21 05:10:46;;;;;;;7.15;6.65;;;;;;;;;;5032518;28;20043;-63
2022/05/21 05:13:12;;;;;;;7.45;6.95;;;;;;;;;;5034201;28;20631;-63
2022/05/21 05:15:38;;;;;;;7.57;7.07;;;;;;;;;;5030623;28;20091;-63
2022/05/21 05:18:06;;;;;;;7.50;6.90;;;;;;;;;;5036096;28;20025;-63
2022/05/21 05:20:32;;;;;;;7.35;6.85;;;;;;;;;;5032300;28;20033;-63
2022/05/21 05:22:58;;;;;;;8.07;7.57;;;;;;;;;;5036240;28;20061;-64
2022/05/21 05:25:24;;;;;;;7.50;7.00;;;;;;;;;;5036265;28;20632;-63
2022/05/21 05:27:50;;;;;;;9.00;8.40;;;;;;;;;;5032453;28;20036;-63
2022/05/21 05:30:17;;;;;;;7.85;7.32;;;;;;;;;;5033015;28;20052;-64
2022/05/21 05:32:43;;;;;;;8.32;7.80;;;;;;;;;;5034049;28;20029;-64
2022/05/21 05:35:09;;;;;;;7.95;7.45;;;;;;;;;;5033643;28;20043;-63
2022/05/21 05:37:34;;;;;;;8.25;7.75;;;;;;;;;;5034456;28;20060;-63
2022/05/21 05:40:00;;;;;;;7.75;7.25;;;;;;;;;;5033766;28;20086;-62
2022/05/21 05:42:26;;;;;;;7.85;7.35;;;;;;;;;;5033176;28;20531;-64
2022/05/21 05:44:52;;;;;;;7.45;6.95;;;;;;;;;;5036143;28;20044;-63
2022/05/21 05:47:17;;;;;;;7.05;6.55;;;;;;;;;;5034486;28;20055;-64
2022/05/21 05:49:42;;;;;;;6.63;6.18;;;;;;;;;;5031289;28;20037;-64
2022/05/21 05:52:09;;;;;;;8.43;7.82;;;;;;;;;;5031929;28;20613;-64
2022/05/21 05:54:35;;;;;;;6.43;6.03;;;;;;;;;;5033240;28;20036;-64
2022/05/21 05:57:00;;;;;;;7.28;6.78;;;;;;;;;;5031960;28;20033;-64
2022/05/21 06:04:53;;;;;;;5.50;5.10;;;;;;;;;;5033612;28;20041;-64
2022/05/21 06:07:19;;;;;;;5.85;5.45;;;;;;;;;;5033579;28;20040;-63
2022/05/21 06:09:44;;;;;;;6.55;6.05;;;;;;;;;;5031814;28;20084;-64
2022/05/21 06:12:10;;;;;;;7.35;6.85;;;;;;;;;;5029217;28;20048;-64
2022/05/21 06:14:36;;;;;;;6.40;5.90;;;;;;;;;;5030575;28;20061;-65
2022/05/21 06:17:01;;;;;;;5.97;5.50;;;;;;;;;;5035505;28;20593;-64
2022/05/21 06:19:27;;;;;;;6.05;5.65;;;;;;;;;;5034671;28;20032;-64
2022/05/21 06:21:57;;;;;;;6.40;6.00;;;;;;;;;;5032028;28;20421;-64
2022/05/21 06:24:23;;;;;;;6.15;5.75;;;;;;;;;;5033143;28;20443;-64
2022/05/21 06:26:49;;;;;;;6.43;6.03;;;;;;;;;;5033194;28;20083;-64
2022/05/21 06:29:14;;;;;;;6.88;6.38;;;;;;;;;;5029299;28;20086;-64
2022/05/21 06:31:39;;;;;;;5.40;5.00;;;;;;;;;;5031544;28;20427;-64
2022/05/21 06:34:05;;;;;;;6.20;5.80;;;;;;;;;;5031581;28;20041;-64
2022/05/21 06:36:30;;;;;;;6.15;5.72;;;;;;;;;;5036536;28;20028;-63
2022/05/21 06:38:56;;;;;;;6.47;5.97;;;;;;;;;;5032710;28;20045;-64
2022/05/21 06:41:21;;;;;;;7.22;6.72;;;;;;;;;;5032083;28;20414;-63
2022/05/21 06:43:46;;;;;;;6.32;5.93;;;;;;;;;;5031212;28;20040;-64
2022/05/21 06:46:12;;;;;;;6.20;5.80;;;;;;;;;;5031695;28;20057;-64
2022/05/21 06:48:38;;;;;;;6.03;5.63;;;;;;;;;;5033561;28;20458;-64
2022/05/21 06:51:05;;;;;;;6.60;6.10;;;;;;;;;;5034551;28;20025;-64
2022/05/21 06:53:32;;;;;;;7.85;7.35;;;;;;;;;;5033787;28;20029;-64
2022/05/21 06:55:58;;;;;;;6.93;6.43;;;;;;;;;;5031378;28;20037;-64
2022/05/21 06:58:23;;;;;;;7.22;6.72;;;;;;;;;;5033007;28;20500;-65
2022/05/21 07:00:48;;;;;;;7.35;6.85;;;;;;;;;;5035222;28;20025;-64
2022/05/21 07:03:14;;;;;;;6.85;6.35;;;;;;;;;;5033042;28;20666;-64
2022/05/21 07:08:37;;;;;;;6.25;5.85;;;;;;;;;;5020134;28;20093;-64
2022/05/21 07:11:02;;;;;;;6.63;6.13;;;;;;;;;;5030619;28;20477;-65
2022/05/21 07:13:30;;;;;;;5.60;5.20;;;;;;;;;;5030388;28;20033;-65
2022/05/21 07:15:57;;;;;;;5.32;4.93;;;;;;;;;;5029492;28;20033;-65
2022/05/21 07:18:23;;;;;;;6.70;6.20;;;;;;;;;;5029471;28;20073;-65
2022/05/21 07:20:49;;;;;;;6.70;6.20;;;;;;;;;;5033732;28;20037;-65
2022/05/21 07:23:15;;;;;;;5.95;5.55;;;;;;;;;;5032288;28;20034;-65
2022/05/21 07:25:41;;;;;;;7.53;7.03;;;;;;;;;;5032501;28;20106;-65
2022/05/21 07:28:08;;;;;;;6.97;6.47;;;;;;;;;;5032048;28;20382;-65
2022/05/21 07:30:34;;;;;;;8.77;8.23;;;;;;;;;;5031773;28;20044;-65
2022/05/21 07:32:59;;;;;;;9.05;8.45;;;;;;;;;;5032265;28;20707;-65
2022/05/21 07:35:27;;;;;;;8.30;7.80;;;;;;;;;;5035271;28;20033;-66
2022/05/21 07:37:52;;;;;;;7.85;7.35;;;;;;;;;;5036135;28;20086;-66
2022/05/21 07:40:19;;;;;;;10.18;9.57;;;;;;;;;;5039217;28;20136;-67
2022/05/21 07:42:45;;;;;;;8.57;8.00;;;;;;;;;;5039949;28;20037;-66
2022/05/21 07:45:12;;;;;;;9.88;9.27;;;;;;;;;;5029679;28;20029;-65
2022/05/21 07:47:37;;;;;;;10.52;9.93;;;;;;;;;;5034483;28;20419;-65
2022/05/21 07:50:04;;;;;;;11.57;10.88;;;;;;;;;;5031975;28;20044;-66
2022/05/21 07:52:30;;;;;;;11.45;10.65;;;;;;;;;;5035321;28;20041;-65
2022/05/21 07:54:56;;;;;;;11.65;10.95;;;;;;;;;;5034262;28;20515;-65
2022/05/21 07:57:22;;;;;;;13.85;13.05;;;;;;;;;;5034461;28;20033;-65
2022/05/21 07:59:47;;;;;;;12.93;12.20;;;;;;;;;;5031652;28;20029;-64
2022/05/21 08:02:17;;;;;;;12.10;11.40;;;;;;;;;;5032733;28;20171;-64
2022/05/21 08:04:44;;;;;;;11.50;10.70;;;;;;;;;;5032275;28;20033;-64
2022/05/21 08:07:09;;;;;;;12.10;11.40;;;;;;;;;;5039015;28;20029;-64
2022/05/21 08:09:35;;;;;;;14.18;13.27;;;;;;;;;;5036440;28;20363;-63
2022/05/21 08:12:02;;;;;;;16.85;15.68;;;;;;;;;;5035071;28;20041;-63
2022/05/21 08:14:28;;;;;;;14.65;13.85;;;;;;;;;;5032124;28;20037;-65
2022/05/21 08:16:53;;;;;;;18.83;17.83;;;;;;;;;;5036482;28;20171;-65
2022/05/21 08:19:19;;;;;;;17.77;16.77;;;;;;;;;;5037418;28;20032;-64
2022/05/21 08:21:44;;;;;;;17.27;16.33;;;;;;;;;;5038787;28;20040;-65
2022/05/21 08:26:56;;;;;;;16.67;15.77;;;;;;;;;;5037268;28;20041;-64
2022/05/21 08:29:29;;;;;;;19.85;18.75;;;;;;;;;;5035782;28;20059;-66
2022/05/21 08:31:55;;;;;;;17.73;16.73;;;;;;;;;;5030016;28;20033;-65
2022/05/21 08:34:22;;;;;;;18.65;17.65;;;;;;;;;;5035661;28;20037;-65
2022/05/21 08:36:47;;;;;;;17.67;16.67;;;;;;;;;;5036182;28;20061;-66
2022/05/21 08:39:14;;;;;;;15.80;14.90;;;;;;;;;;5032514;28;20068;-65
2022/05/21 08:41:56;;;;;;;17.10;16.17;;;;;;;;;;5034461;28;20060;-65
2022/05/21 08:44:43;;;;;;;14.88;14.00;;;;;;;;;;5028097;28;20467;-64
2022/05/21 08:47:30;;;;;;;16.92;16.00;;;;;;;;;;5029879;28;20029;-64
2022/05/21 08:49:59;;;;;;;15.63;14.73;;;;;;;;;;5027609;28;20832;-65
2022/05/21 08:52:37;;;;;;;15.00;14.10;;;;;;;;;;5030042;28;20052;-65
2022/05/21 08:55:06;;;;;;;14.98;14.13;;;;;;;;;;5030231;28;20101;-64
2022/05/21 08:57:52;;;;;;;16.05;15.15;;;;;;;;;;5030963;28;20052;-64
2022/05/21 09:00:33;;;;;;;16.33;15.43;;;;;;;;;;5032016;28;20625;-64
2022/05/21 09:02:59;;;;;;;16.42;15.52;;;;;;;;;;5032982;28;20086;-64
2022/05/21 09:05:25;;;;;;;12.35;11.65;;;;;;;;;;5031259;28;20041;-65
2022/05/21 09:08:03;;;;;;;13.13;12.32;;;;;;;;;;5030886;28;20058;-65
2022/05/21 09:11:03;;;;;;;13.18;12.38;;;;;;;;;;5032235;28;20359;-65
2022/05/21 09:13:35;;;;;;;;;;;;;;;;;;5029188;28;20045;-66
2022/05/21 09:18:45;;;;;;;16.33;13.68;;;;;;;;;;5032722;28;20113;-64
2022/05/21 09:21:16;;;;;;;11.80;11.10;;;;;;;;;;5029950;28;20105;-65
2022/05/21 09:23:54;;;;;;;12.57;11.88;;;;;;;;;;5029395;28;20459;-65
2022/05/21 09:26:24;;;;;;;14.15;13.35;;;;;;;;;;5032413;28;20591;-65
2022/05/21 09:28:50;;;;;;;13.18;12.38;;;;;;;;;;5030946;28;20065;-65
2022/05/21 09:31:29;;;;;;;13.07;12.27;;;;;;;;;;5031353;28;20378;-65
2022/05/21 09:33:55;;;;;;;16.42;15.48;;;;;;;;;;5033245;28;20108;-65
2022/05/21 09:36:32;;;;;;;15.18;14.27;;;;;;;;;;5035065;28;20116;-65
2022/05/21 09:38:57;;;;;;;11.50;10.80;;;;;;;;;;5033613;28;20689;-65
2022/05/21 09:41:28;;;;;;;14.40;13.60;;;;;;;;;;5033494;28;20033;-64
2022/05/21 09:47:15;;;;;;;13.75;12.95;;;;;;;;;;5030251;28;20458;-64
2022/05/21 09:49:42;;;;;;;16.20;15.30;;;;;;;;;;5033156;28;20370;-65
2022/05/21 09:52:20;;;;;;;17.17;16.23;;;;;;;;;;5035077;28;20047;-66
2022/05/21 09:54:46;;;;;;;16.05;15.15;;;;;;;;;;5034022;28;20837;-66
2022/05/21 09:57:37;;;;;;;19.13;18.10;;;;;;;;;;5033491;28;20108;-65
2022/05/21 10:00:35;;;;;;;17.33;16.33;;;;;;;;;;5032234;28;20469;-64
2022/05/21 10:03:03;;;;;;;15.02;14.13;;;;;;;;;;5032341;28;20065;-64
2022/05/21 10:05:35;;;;;;;24.10;22.80;;;;;;;;;;5030126;28;20037;-65
2022/05/21 10:10:58;;;;;;;39.60;36.42;;;;;;;;;;5025407;28;20033;-61
2022/05/21 10:13:24;;;;;;;22.17;20.98;;;;;;;;;;5028531;28;20036;-60
2022/05/21 10:16:12;;;;;;;23.05;21.83;;;;;;;;;;5027263;28;20022;-61
2022/05/21 10:18:47;;;;;;;32.35;30.67;;;;;;;;;;5030755;28;20029;-62
2022/05/21 10:21:25;;;;;;;46.63;44.22;;;;;;;;;;5030969;28;20069;-61
2022/05/21 10:24:20;;;;;;;35.03;33.20;;;;;;;;;;5032826;28;20033;-61
2022/05/21 10:27:04;;;;;;;34.10;32.35;;;;;;;;;;5033713;28;20026;-61
2022/05/21 10:29:56;;;;;;;50.70;48.13;;;;;;;;;;5032369;28;20558;-59
2022/05/21 10:32:28;;;;;;;38.50;36.50;;;;;;;;;;5034134;28;20025;-60
2022/05/21 10:34:53;;;;;;;32.22;30.52;;;;;;;;;;5033796;28;20037;-61
2022/05/21 10:37:24;;;;;;;37.53;35.58;;;;;;;;;;5033776;28;20045;-61
2022/05/21 10:40:13;;;;;;;49.33;46.83;;;;;;;;;;5029769;28;20044;-61
2022/05/21 10:43:06;;;;;;;19.42;18.35;;;;;;;;;;5034287;28;20041;-65
2022/05/21 10:45:40;;;;;;;27.98;26.35;;;;;;;;;;5034668;28;20076;-63
2022/05/21 10:48:44;;;;;;;55.20;52.40;;;;;;;;;;5032322;28;20037;-62
2022/05/21 10:51:19;;;;;;;55.63;52.78;;;;;;;;;;4988809;28;20046;-62
2022/05/21 10:54:22;;;;;;;37.80;35.75;;;;;;;;;;4991545;28;20030;-61
2022/05/21 10:57:19;;;;;;;19.17;18.08;;;;;;;;;;5021418;28;20048;-61
2022/05/21 11:00:18;;;;;;;27.90;26.45;;;;;;;;;;5029987;28;20044;-62
2022/05/21 11:02:55;;;;;;;26.90;25.50;;;;;;;;;;5034692;28;20041;-61
2022/05/21 11:05:45;;;;;;;20.77;19.65;;;;;;;;;;5034975;28;20034;-62
2022/05/21 11:08:22;;;;;;;23.08;21.77;;;;;;;;;;5034541;28;20498;-62
2022/05/21 11:11:04;;;;;;;24.25;22.95;;;;;;;;;;5035776;28;20333;-63
2022/05/21 11:13:38;;;;;;;39.33;37.28;;;;;;;;;;5034558;28;20033;-62
2022/05/21 11:16:14;;;;;;;22.02;20.85;;;;;;;;;;5034851;28;20033;-61
2022/05/21 11:18:52;;;;;;;32.83;31.13;;;;;;;;;;5031426;28;20130;-62
2022/05/21 11:21:27;;;;;;;30.73;29.13;;;;;;;;;;5033917;28;20029;-63
2022/05/21 11:24:02;;;;;;;31.20;29.60;;;;;;;;;;5029320;28;20062;-63
2022/05/21 11:26:40;;;;;;;32.00;30.33;;;;;;;;;;5031238;28;20077;-61
2022/05/21 11:29:27;;;;;;;36.15;34.30;;;;;;;;;;5030667;28;20124;-61
2022/05/21 11:37:47;;;;;;;101.22;96.20;;;;;;;;;;5032365;28;20036;-63
2022/05/21 11:40:49;;;;;;;29.02;27.52;;;;;;;;;;5027474;28;20045;-62
2022/05/21 11:43:17;;;;;;;26.20;24.80;;;;;;;;;;5027951;28;20129;-63
2022/05/21 11:45:58;;;;;;;44.70;42.40;;;;;;;;;;5032005;28;20064;-64
2022/05/21 11:48:28;;;;;;;63.90;60.67;;;;;;;;;;5035696;28;20033;-63
2022/05/21 11:51:19;;;;;;;58.13;55.20;;;;;;;;;;5031018;28;20114;-64
2022/05/21 11:53:45;;;;;;;40.75;38.60;;;;;;;;;;5030086;28;20033;-62
2022/05/21 11:56:12;;;;;;;79.45;75.50;;;;;;;;;;5030834;28;20029;-62
2022/05/21 11:58:59;;;;;;;68.68;65.22;;;;;;;;;;5031677;28;20040;-63
2022/05/21 12:01:37;;;;;;;70.20;66.60;;;;;;;;;;5029827;28;20112;-63
2022/05/21 12:04:03;;;;;;;105.28;100.10;;;;;;;;;;5033085;28;20033;-63
2022/05/21 12:06:37;;;;;;;101.43;96.28;;;;;;;;;;5035927;28;20040;-64
2022/05/21 12:09:34;;;;;;;108.57;103.18;;;;;;;;;;5032720;28;20689;-64
2022/05/21 12:12:22;;;;;;;114.25;108.65;;;;;;;;;;5022274;28;20041;-63
2022/05/21 12:15:16;;;;;;;100.70;95.72;;;;;;;;;;5026054;28;20033;-63
2022/05/21 12:17:44;;;;;;;110.63;105.15;;;;;;;;;;5028599;28;20123;-63
2022/05/21 12:20:16;;;;;;;90.15;85.65;;;;;;;;;;5034935;28;20039;-63
2022/05/21 12:22:50;;;;;;;110.47;105.00;;;;;;;;;;5036039;28;20051;-64
2022/05/21 12:25:44;;;;;;;111.63;106.15;;;;;;;;;;5033171;28;20144;-63
2022/05/21 12:28:10;;;;;;;109.25;103.88;;;;;;;;;;5033565;28;20030;-63
2022/05/21 12:30:36;;;;;;;88.07;83.68;;;;;;;;;;5035214;28;20482;-62
2022/05/21 12:33:01;;;;;;;85.85;81.55;;;;;;;;;;5031492;28;20046;-62
2022/05/21 12:35:42;;;;;;;142.48;135.45;;;;;;;;;;5033454;28;20087;-62
2022/05/21 12:38:23;;;;;;;95.88;91.05;;;;;;;;;;5030817;28;20223;-63
2022/05/21 12:41:04;;;;;;;117.63;111.88;;;;;;;;;;5038065;28;20045;-62
2022/05/21 12:43:48;;;;;;;102.82;97.72;;;;;;;;;;5034951;28;20116;-62
2022/05/21 12:46:22;;;;;;;117.78;111.97;;;;;;;;;;5031878;28;20040;-61
2022/05/21 12:48:49;;;;;;;122.25;116.20;;;;;;;;;;5034718;28;20402;-62
2022/05/21 12:51:37;;;;;;;124.63;118.50;;;;;;;;;;5030051;28;20034;-60
2022/05/21 12:54:07;;;;;;;106.88;101.63;;;;;;;;;;5027068;28;20550;-60
2022/05/21 12:56:37;;;;;;;125.35;119.15;;;;;;;;;;5029930;28;20433;-58
2022/05/21 12:59:06;;;;;;;;;;;;;;;;;;5024400;28;20120;-59
2022/05/21 13:01:34;;;;;;;79.80;75.82;;;;;;;;;;5032209;28;19931;-59
2022/05/21 13:04:00;;;;;;;117.45;111.68;;;;;;;;;;5029236;28;20045;-59
2022/05/21 13:06:31;;;;;;;101.85;96.85;;;;;;;;;;5025944;28;20459;-60
2022/05/21 13:08:59;;;;;;;85.35;81.10;;;;;;;;;;5028533;28;20044;-58
2022/05/21 13:11:35;;;;;;;111.57;106.07;;;;;;;;;;5028221;28;20047;-58
2022/05/21 13:14:10;;;;;;;133.57;127.00;;;;;;;;;;5031523;28;20591;-65
2022/05/21 13:16:49;;;;;;;122.38;116.32;;;;;;;;;;5036794;28;20601;-59
2022/05/21 13:19:38;;;;;;;107.05;101.57;;;;;;;;;;5034243;28;20036;-58
2022/05/21 13:22:12;;;;;;;126.55;120.28;;;;;;;;;;5023203;28;20115;-58
2022/05/21 13:24:45;;;;;;;132.68;126.13;;;;;;;;;;5029224;28;20124;-58
2022/05/21 13:27:20;;;;;;;167.88;159.65;;;;;;;;;;5030291;28;20033;-66
2022/05/21 13:29:47;;;;;;;125.60;119.38;;;;;;;;;;5031163;28;20037;-66
2022/05/21 13:32:17;;;;;;;148.52;141.15;;;;;;;;;;5027612;28;20045;-66
2022/05/21 13:34:43;;;;;;;58.33;55.35;;;;;;;;;;5033196;28;20051;-66
2022/05/21 13:37:08;;;;;;;73.78;70.05;;;;;;;;;;5035124;28;20029;-66
2022/05/21 13:39:36;;;;;;;119.55;113.63;;;;;;;;;;5031833;28;20128;-66
2022/05/21 13:42:13;;;;;;;86.97;82.65;;;;;;;;;;5030250;28;20033;-68
2022/05/21 13:44:41;;;;;;;42.25;40.05;;;;;;;;;;5029076;28;20038;-66
2022/05/21 13:47:22;;;;;;;51.95;49.30;;;;;;;;;;5034425;28;20083;-65
2022/05/21 13:49:52;;;;;;;32.17;30.52;;;;;;;;;;5030722;28;20106;-68
2022/05/21 13:52:17;;;;;;;119.85;113.93;;;;;;;;;;5032670;28;20041;-67
2022/05/21 13:54:43;;;;;;;28.33;26.85;;;;;;;;;;5035477;28;20344;-67
2022/05/21 13:57:32;;;;;;;30.17;28.60;;;;;;;;;;5031570;28;20033;-68
2022/05/21 14:00:06;;;;;;;53.28;50.58;;;;;;;;;;5032509;28;20029;-67
2022/05/21 14:02:34;;;;;;;61.35;58.25;;;;;;;;;;5029927;28;20041;-67
2022/05/21 14:04:59;;;;;;;24.73;23.42;;;;;;;;;;5029143;28;20135;-67
2022/05/21 14:07:31;;;;;;;55.67;52.78;;;;;;;;;;5027210;28;20631;-68
2022/05/21 14:10:05;;;;;;;38.20;36.25;;;;;;;;;;5036822;28;20044;-67
2022/05/21 14:12:50;;;;;;;23.52;22.27;;;;;;;;;;5034936;28;20037;-68
2022/05/21 14:15:26;;;;;;;22.63;21.33;;;;;;;;;;5029654;28;20029;-68
2022/05/21 14:17:56;;;;;;;22.85;21.60;;;;;;;;;;5034620;28;20094;-69
2022/05/21 14:20:26;;;;;;;32.03;30.33;;;;;;;;;;5034315;28;20099;-68
2022/05/21 14:22:52;;;;;;;25.40;24.05;;;;;;;;;;5034821;28;20037;-68
2022/05/21 14:25:20;;;;;;;23.48;22.17;;;;;;;;;;5032821;28;20060;-68
2022/05/21 14:28:02;;;;;;;26.17;24.77;;;;;;;;;;5033022;28;20044;-68
2022/05/21 14:30:30;;;;;;;25.35;24.00;;;;;;;;;;5029332;28;20063;-66
2022/05/21 14:32:55;;;;;;;23.17;21.98;;;;;;;;;;5032373;28;20039;-69
2022/05/21 14:35:21;;;;;;;20.92;19.80;;;;;;;;;;5032258;28;20030;-68
2022/05/21 14:37:49;;;;;;;20.45;19.35;;;;;;;;;;5033420;28;20072;-68
2022/05/21 14:40:16;;;;;;;17.80;16.80;;;;;;;;;;5031672;28;20033;-68
2022/05/21 14:42:42;;;;;;;19.38;18.27;;;;;;;;;;5029536;28;20029;-67
2022/05/21 14:45:17;;;;;;;21.90;20.70;;;;;;;;;;5035462;28;20056;-68
2022/05/21 14:47:52;;;;;;;18.92;17.92;;;;;;;;;;5033509;28;20037;-67
2022/05/21 14:53:23;;;;;;;20.30;19.20;;;;;;;;;;5034451;28;20463;-68
2022/05/21 14:55:49;;;;;;;17.83;16.83;;;;;;;;;;5033985;28;20034;-66
2022/05/21 14:58:16;;;;;;;20.10;19.00;;;;;;;;;;5028084;28;20053;-67
2022/05/21 15:00:41;;;;;;;21.00;19.88;;;;;;;;;;5032346;28;20124;-65
2022/05/21 15:03:07;;;;;;;21.38;19.95;;;;;;;;;;5033445;28;20112;-67
2022/05/21 15:05:35;;;;;;;23.67;22.38;;;;;;;;;;5031466;28;20056;-67
2022/05/21 15:08:01;;;;;;;21.63;20.45;;;;;;;;;;5033568;28;20116;-67
2022/05/21 15:10:27;;;;;;;22.65;21.35;;;;;;;;;;5033768;28;20041;-67
2022/05/21 15:12:52;;;;;;;24.23;22.48;;;;;;;;;;5032088;28;20143;-67
2022/05/21 15:15:19;;;;;;;23.17;21.98;;;;;;;;;;5033990;28;20495;-66
2022/05/21 15:17:45;;;;;;;23.88;22.58;;;;;;;;;;5034490;28;20029;-68
2022/05/21 15:20:15;;;;;;;22.48;21.27;;;;;;;;;;5031025;28;20446;-68
2022/05/21 15:22:43;;;;;;;23.80;22.50;;;;;;;;;;5034017;28;20060;-66